Burna, Kentucky
Current Conditions -  °F | °C
As of 8:55 AM on Monday 24 Nov 2014 (Local Time) from K5M9 Reporting Station
Overcast Overcast  
Wind Chill: 35°   Ceiling: 2500
Heat Index: 43°   Visibility: 10mi
Dew Point: 35°   Wind: 16mph
Humidity: 75%   Direction: 270°W
Pressure: 29.68"   Gusts: 30mph
Location:  37.25°N, 88.36°W
Report Text: K5M9 241455Z AUTO 27014G26KT 10SM BKN025 OVC034 06/02 A2968 RMK AO2 T00600019
Loading
Personal Weather Stations






























Interactive Weather Map New forecast layout! Learn more

10-Day Weather Forecast

Advertisements
Track Severe Weather on mobile